Forside
METAR-TAF:

METAR-TAF

Lufthavne :

Livingston County Spencer J. Hardy Airport

Howell, Michigan, USA

Breddekreds: 42-37-46N, længdekreds: 083-59-03W, højde: 293 m

Aktuelle vejr

Denne rapport blev lavet for 24 minutter siden, kl. 21:36 UTC
Vind 11 kt fra vest
Temperatur 1°C
Fugtighed 93%
Tryk 1008 hPa
Sigt: 6.4 km
Overskyet i en højde af 800 ft
dis

METAR: KOZW 262136Z AUTO 26011KT 4SM BR OVC008 01/00 A2976 RMK AO2 T00120001

Tid: 17:00 (22:00 UTC)


TAF: fraværende

Vejrobservationer og prognoser fra mere end 4000 lufthavne (METAR og TAF).

De gule og røde prikker repræsenterer de meteorologiske stationer.

Flyt musen over at se navnet på stationen.

Så klik over at se vejr observationer og prognoser.

At skifte det kort: Klik på de grønne knapper med et sort kors for at zoome ind; på den grønne knap med en bindestreg for at zoome ud; eller på de grønne pile for tilstødende kort.


METAR-TAF: